Pagina principale
METAR-TAF:

METAR-TAF

Aeroporti :

Aeroporto di Palermo-Punta Raisi

Palermo, Italia

latitudine: 38-11N, longitudine: 013-06E, altezza: 21 m

Osservazione

Il bollettino è stato emesso 34 minuti fa, alle 02:50 UTC
Vento 8 kt da sud
Temperature 11°C
Umidità 76%
Pressione 1026 hPa
Visibilità 10 km o più
nessuna nube inferiore a 1500 m e nessun cumulonembo

METAR: LICJ 240250Z 19008KT CAVOK 11/07 Q1026

Ora: 04:24 (03:24 UTC)

Previsione

Il bollettino è stato emesso 4 ore e 24 minuti fa, alle 23:00 UTC
Previsione valida dal 24 alle 00 UTC al 24 alle 24 UTC
Vento 8 kt da sud/sud-ovest
Visibilità 10 km o più
nessuna nube inferiore a 1500 m e nessun cumulonembo
Evoluzione graduale
dal 24 alle 10 UTC al 24 alle 12 UTC
Vento 10 kt da nord
Evoluzione graduale
dal 24 alle 18 UTC al 24 alle 20 UTC
Vento 4 kt da direzioni variabili

TAF: LICJ 232300Z 2400/2424 20008KT CAVOK BECMG 2410/2412 01010KT BECMG 2418/2420 VRB04KT

Osservazioni e previsioni meteorologiche di più di 4000 aeroporti (messaggi METAR e TAF).

Le stazioni disponibili sono rappresentate dai dischi gialli e rossi sulla carta.

Puntare il mouse per vedere il nome della stazione.

Clicca sopra per visualizzare le osservazioni e previsioni meteorologiche.

Per cambiare la mappa : fare clic sui pulsanti verdi con una croce nera per ingrandire, il pulsante verde con un trattino per diminuire, o sulla freccia verde per le mappe adiacenti.


METAR-TAF: